Time;durP1;ratioP1;P1;durP2;ratioP2;P2;SDS_P1;SDS_P2;PMS_P1;PMS_P2;Temp;Humidity;BMP_temperature;BMP_pressure;BME280_temperature;BME280_humidity;BME280_pressure;Samples;Min_cycle;Max_cycle;Signal;HPM_P1;HPM_P2
2022/10/19 00:05:10;;;;;;;17.02;9.82;;;;;;;14.63;100.00;101330.28;20510832;28;20039;-84
2022/10/19 00:15:12;;;;;;;22.27;12.90;;;;;;;14.63;100.00;101323.25;20619001;28;20057;-81
2022/10/19 00:25:13;;;;;;;35.35;17.40;;;;;;;14.66;100.00;101324.97;20612269;28;20382;-83
2022/10/19 00:35:14;;;;;;;42.67;17.75;;;;;;;14.65;100.00;101332.88;20543886;28;20098;-84
2022/10/19 00:45:16;;;;;;;46.47;20.23;;;;;;;14.56;100.00;101333.91;20508420;28;20043;-84
2022/10/19 00:55:17;;;;;;;43.00;19.17;;;;;;;14.63;100.00;101343.47;20508190;28;20047;-84
2022/10/19 01:05:18;;;;;;;36.55;18.45;;;;;;;14.55;100.00;101321.63;20502992;28;20050;-84
2022/10/19 01:15:20;;;;;;;39.08;20.48;;;;;;;14.53;100.00;101310.25;20502820;28;20066;-84
2022/10/19 01:25:21;;;;;;;42.72;20.70;;;;;;;14.56;100.00;101313.72;20509207;28;20043;-85
2022/10/19 01:35:24;;;;;;;55.25;24.58;;;;;;;14.51;100.00;101305.00;20499672;28;20043;-85
2022/10/19 01:45:26;;;;;;;71.28;28.35;;;;;;;14.52;100.00;101301.50;20529563;28;20047;-85
2022/10/19 01:55:27;;;;;;;71.05;30.58;;;;;;;14.47;100.00;101278.69;20524248;28;20043;-84
2022/10/19 02:05:28;;;;;;;94.50;33.20;;;;;;;14.56;100.00;101279.47;20521873;28;20039;-84
2022/10/19 02:15:30;;;;;;;93.40;33.53;;;;;;;14.51;100.00;101283.03;20520602;28;20054;-84
2022/10/19 02:25:31;;;;;;;84.75;31.05;;;;;;;14.53;100.00;101274.22;20594309;28;20067;-84
2022/10/19 02:35:33;;;;;;;89.93;33.13;;;;;;;14.57;100.00;101264.50;20550936;28;20119;-82
2022/10/19 02:45:34;;;;;;;78.78;33.08;;;;;;;14.44;100.00;101240.09;20549493;28;20043;-84
2022/10/19 02:55:36;;;;;;;99.82;34.05;;;;;;;14.54;100.00;101233.78;20540885;28;20047;-85
2022/10/19 03:05:37;;;;;;;108.68;33.22;;;;;;;14.48;100.00;101226.00;20547264;28;20122;-85
2022/10/19 03:15:38;;;;;;;85.70;29.92;;;;;;;14.46;100.00;101232.16;20502971;29;20508;-85
2022/10/19 03:25:40;;;;;;;82.32;30.13;;;;;;;14.34;100.00;101233.28;20530262;28;20043;-85
2022/10/19 03:35:41;;;;;;;113.88;29.77;;;;;;;14.18;100.00;101237.94;20512636;28;20047;-84
2022/10/19 03:45:42;;;;;;;83.63;30.50;;;;;;;14.16;100.00;101229.19;20535780;28;20046;-84
2022/10/19 03:55:44;;;;;;;88.65;30.95;;;;;;;14.32;100.00;101224.50;20611075;28;20086;-84
2022/10/19 04:05:45;;;;;;;83.32;31.58;;;;;;;14.36;100.00;101236.72;20590352;28;20039;-85
2022/10/19 04:15:46;;;;;;;56.15;25.10;;;;;;;14.33;100.00;101237.66;20506735;28;20062;-85
2022/10/19 04:25:48;;;;;;;53.05;23.02;;;;;;;14.34;100.00;101235.91;20500031;28;20043;-85
2022/10/19 04:35:49;;;;;;;54.70;23.95;;;;;;;14.21;100.00;101231.75;20507394;28;20492;-86
2022/10/19 04:45:50;;;;;;;57.78;21.50;;;;;;;14.16;100.00;101249.38;20532568;28;20047;-85
2022/10/19 04:55:52;;;;;;;49.90;20.75;;;;;;;14.03;100.00;101239.03;20525616;28;20047;-85
2022/10/19 05:05:53;;;;;;;64.03;22.23;;;;;;;13.91;100.00;101239.25;20542229;28;20043;-85
2022/10/19 05:15:54;;;;;;;53.85;21.25;;;;;;;13.84;100.00;101232.34;20505524;28;20050;-85
2022/10/19 05:25:56;;;;;;;49.47;19.60;;;;;;;13.78;100.00;101233.31;20503770;28;20051;-84
2022/10/19 05:35:57;;;;;;;47.55;19.92;;;;;;;13.64;100.00;101235.28;20513674;28;20488;-84
2022/10/19 05:45:59;;;;;;;43.78;18.48;;;;;;;13.61;100.00;101224.81;20528678;28;20047;-84
2022/10/19 05:56:00;;;;;;;36.45;14.98;;;;;;;13.53;100.00;101226.69;20513518;28;20054;-84
2022/10/19 06:06:02;;;;;;;36.60;15.50;;;;;;;13.43;100.00;101218.06;20507774;28;20110;-84
2022/10/19 06:16:03;;;;;;;35.78;15.57;;;;;;;13.54;100.00;101223.16;20520969;28;20138;-83
2022/10/19 06:26:04;;;;;;;39.58;17.85;;;;;;;13.71;100.00;101231.69;20504705;28;20051;-82
2022/10/19 06:36:06;;;;;;;43.13;17.55;;;;;;;13.72;100.00;101225.53;20535804;28;20475;-82
2022/10/19 06:46:07;;;;;;;44.00;18.13;;;;;;;13.83;100.00;101242.00;20535886;28;20105;-82
2022/10/19 06:56:09;;;;;;;44.40;18.83;;;;;;;13.93;100.00;101248.00;20535113;28;20050;-81
2022/10/19 07:06:10;;;;;;;37.80;17.88;;;;;;;13.88;100.00;101244.56;20538634;28;20043;-82
2022/10/19 07:16:12;;;;;;;34.47;17.88;;;;;;;13.96;100.00;101242.69;20508241;28;20069;-83
2022/10/19 07:26:22;;;;;;;31.45;17.33;;;;;;;14.07;100.00;101251.28;20544340;28;20046;-81
2022/10/19 07:36:23;;;;;;;37.63;19.13;;;;;;;14.19;100.00;101244.09;20609793;28;20043;-80
2022/10/19 07:46:25;;;;;;;47.17;19.98;;;;;;;14.14;100.00;101256.47;20569265;28;20147;-81
2022/10/19 07:56:26;;;;;;;36.88;18.58;;;;;;;14.14;100.00;101245.94;20523078;28;20043;-78
2022/10/19 08:06:27;;;;;;;31.80;16.98;;;;;;;14.14;100.00;101248.56;20526317;28;20048;-81
2022/10/19 08:16:31;;;;;;;27.40;15.52;;;;;;;14.11;100.00;101252.97;20515149;28;20059;-81
2022/10/19 08:26:33;;;;;;;33.25;17.73;;;;;;;14.09;100.00;101246.00;20526146;28;20047;-84
2022/10/19 08:36:34;;;;;;;29.73;15.10;;;;;;;14.03;100.00;101248.72;20512833;28;20241;-80
2022/10/19 08:46:36;;;;;;;28.10;14.88;;;;;;;14.10;100.00;101248.59;20508735;28;20050;-80
2022/10/19 08:56:37;;;;;;;25.95;14.20;;;;;;;14.06;100.00;101238.13;20497437;28;20051;-83
2022/10/19 09:06:51;;;;;;;31.23;15.57;;;;;;;14.16;100.00;101236.22;20516683;28;20082;-81
2022/10/19 09:16:53;;;;;;;27.17;14.77;;;;;;;14.24;100.00;101236.97;20517419;28;20087;-81
2022/10/19 09:26:54;;;;;;;31.33;15.02;;;;;;;14.15;100.00;101229.22;20520599;28;20050;-82
2022/10/19 09:36:56;;;;;;;23.33;12.80;;;;;;;14.27;100.00;101231.63;20536408;28;20127;-84
2022/10/19 09:46:57;;;;;;;22.85;12.57;;;;;;;14.52;100.00;101226.84;20524911;28;20346;-83
2022/10/19 09:56:59;;;;;;;18.83;10.95;;;;;;;15.03;100.00;101211.72;20509741;28;20270;-83
2022/10/19 10:07:00;;;;;;;16.63;9.70;;;;;;;15.10;100.00;101210.72;20522810;28;20043;-81
2022/10/19 10:17:01;;;;;;;16.08;11.00;;;;;;;15.11;100.00;101212.44;20549608;28;20047;-81
2022/10/19 10:27:03;;;;;;;22.00;12.68;;;;;;;15.24;100.00;101197.22;20507105;29;20078;-81
2022/10/19 10:37:05;;;;;;;20.88;12.23;;;;;;;15.41;100.00;101188.91;20525561;28;20413;-81
2022/10/19 10:47:07;;;;;;;23.85;13.13;;;;;;;15.28;100.00;101183.06;20531585;28;20058;-81
2022/10/19 10:57:11;;;;;;;20.90;12.00;;;;;;;15.44;100.00;101178.28;20506984;28;20046;-81
2022/10/19 11:07:13;;;;;;;20.02;12.13;;;;;;;16.08;100.00;101167.94;20504489;28;20121;-81
2022/10/19 11:17:14;;;;;;;15.63;9.75;;;;;;;16.39;100.00;101144.22;20516029;28;20080;-81
2022/10/19 11:27:15;;;;;;;12.13;8.40;;;;;;;16.59;100.00;101127.78;20621914;28;20047;-81
2022/10/19 11:37:17;;;;;;;12.80;7.80;;;;;;;16.54;100.00;101122.63;20628172;28;20095;-82
2022/10/19 11:47:18;;;;;;;11.80;7.38;;;;;;;16.33;100.00;101123.22;20544338;28;20074;-81
2022/10/19 11:57:19;;;;;;;13.18;7.60;;;;;;;16.33;100.00;101128.50;20546662;28;20039;-83
2022/10/19 12:07:21;;;;;;;14.10;7.78;;;;;;;16.37;100.00;101109.88;20522819;28;20500;-80
2022/10/19 12:17:22;;;;;;;11.73;6.40;;;;;;;16.42;100.00;101102.66;20536032;28;20047;-81
2022/10/19 12:27:23;;;;;;;10.98;6.63;;;;;;;16.16;100.00;101084.06;20546055;28;20047;-81
2022/10/19 12:37:25;;;;;;;11.48;6.03;;;;;;;16.40;100.00;101056.06;20537640;28;20548;-82
2022/10/19 12:47:27;;;;;;;6.18;4.15;;;;;;;16.87;100.00;101035.28;20563883;28;20043;-80
2022/10/19 12:57:28;;;;;;;6.05;3.78;;;;;;;17.26;100.00;101037.56;20586111;28;20127;-80
2022/10/19 13:07:29;;;;;;;7.13;3.00;;;;;;;17.37;100.00;101008.94;20532955;28;20102;-82
2022/10/19 13:17:31;;;;;;;6.47;3.00;;;;;;;17.48;100.00;100992.66;20514440;28;20051;-81
2022/10/19 13:27:34;;;;;;;8.63;3.30;;;;;;;17.24;100.00;100986.44;20509970;28;20039;-81
2022/10/19 13:37:36;;;;;;;7.78;4.03;;;;;;;17.38;100.00;100958.56;20530452;28;20039;-81
2022/10/19 13:47:37;;;;;;;5.68;2.75;;;;;;;17.58;100.00;100955.25;20532885;28;20134;-81
2022/10/19 13:57:39;;;;;;;8.95;2.58;;;;;;;17.67;100.00;100941.66;20529322;28;20130;-81
2022/10/19 14:07:40;;;;;;;10.57;2.97;;;;;;;17.45;100.00;100938.06;20526624;28;20043;-81
2022/10/19 14:17:41;;;;;;;6.57;2.80;;;;;;;17.36;100.00;100938.38;20530154;28;20055;-80
2022/10/19 14:27:43;;;;;;;5.50;3.38;;;;;;;17.04;100.00;100926.25;20520554;28;20079;-81
2022/10/19 14:37:44;;;;;;;6.97;3.00;;;;;;;16.81;100.00;100924.38;20522293;28;20047;-80
2022/10/19 14:47:46;;;;;;;5.63;3.28;;;;;;;16.67;100.00;100916.88;20525007;28;20046;-80
2022/10/19 14:57:47;;;;;;;5.50;2.92;;;;;;;16.74;100.00;100917.59;20535741;28;20047;-81
2022/10/19 15:07:49;;;;;;;10.18;2.63;;;;;;;16.61;100.00;100902.06;20575808;28;20039;-81
2022/10/19 15:17:51;;;;;;;7.13;2.95;;;;;;;16.64;100.00;100891.41;20563356;28;20053;-81
2022/10/19 15:27:53;;;;;;;7.57;2.70;;;;;;;16.52;100.00;100883.88;20572658;28;20103;-81
2022/10/19 15:37:54;;;;;;;5.68;3.20;;;;;;;16.29;100.00;100859.94;20524792;28;20039;-81
2022/10/19 15:47:56;;;;;;;6.20;3.47;;;;;;;16.13;100.00;100871.00;20533170;28;20049;-81
2022/10/19 15:57:59;;;;;;;6.78;3.80;;;;;;;16.05;100.00;100859.84;20529577;28;20051;-82
2022/10/19 16:08:01;;;;;;;7.78;4.35;;;;;;;15.84;100.00;100856.06;20509851;28;20436;-84
2022/10/19 16:18:02;;;;;;;7.88;4.68;;;;;;;15.65;100.00;100850.44;20532306;28;20055;-82
2022/10/19 16:28:04;;;;;;;8.15;4.50;;;;;;;15.35;100.00;100856.59;20509815;28;20046;-82
2022/10/19 16:38:05;;;;;;;8.88;4.60;;;;;;;15.23;100.00;100855.16;20519962;28;20039;-82
2022/10/19 16:48:06;;;;;;;11.25;4.30;;;;;;;14.99;100.00;100855.81;20524582;28;20047;-82
2022/10/19 16:58:08;;;;;;;7.35;4.30;;;;;;;14.89;100.00;100852.56;20523272;28;20040;-83
2022/10/19 17:08:10;;;;;;;10.63;4.68;;;;;;;14.83;100.00;100858.00;20508352;28;20385;-82
2022/10/19 17:18:11;;;;;;;9.23;5.55;;;;;;;14.71;100.00;100850.38;20540647;28;20047;-83
2022/10/19 17:28:13;;;;;;;7.40;4.78;;;;;;;14.51;100.00;100871.97;20548641;28;20047;-82
2022/10/19 17:38:15;;;;;;;8.18;4.75;;;;;;;14.32;100.00;100850.44;20533737;28;20039;-82
2022/10/19 17:48:16;;;;;;;11.10;5.38;;;;;;;14.21;100.00;100848.06;20534772;28;20048;-82
2022/10/19 17:58:17;;;;;;;8.45;5.88;;;;;;;14.12;100.00;100848.28;20631496;28;20043;-82
2022/10/19 18:08:19;;;;;;;9.80;5.95;;;;;;;13.92;100.00;100851.38;20522200;28;20036;-82
2022/10/19 18:18:21;;;;;;;14.77;7.03;;;;;;;13.72;100.00;100875.50;20543991;28;20047;-82
2022/10/19 18:28:23;;;;;;;12.65;7.10;;;;;;;13.62;100.00;100860.81;20616375;28;20098;-82
2022/10/19 18:38:24;;;;;;;12.43;7.13;;;;;;;13.41;100.00;100858.59;20580556;28;20047;-82
2022/10/19 18:48:25;;;;;;;15.30;9.13;;;;;;;13.32;100.00;100849.16;20546655;28;20066;-82
2022/10/19 18:58:29;;;;;;;12.95;9.23;;;;;;;13.21;100.00;100830.03;20560348;28;20428;-83
2022/10/19 19:08:31;;;;;;;15.10;9.40;;;;;;;13.00;100.00;100821.66;20522277;28;20456;-81
2022/10/19 19:18:33;;;;;;;18.70;11.00;;;;;;;12.97;100.00;100811.19;20529048;28;20075;-81
2022/10/19 19:28:34;;;;;;;23.55;12.52;;;;;;;12.82;100.00;100795.72;20649799;28;20055;-82
2022/10/19 19:38:40;;;;;;;21.02;13.35;;;;;;;12.72;100.00;100787.16;20610023;28;20043;-81
2022/10/19 19:48:42;;;;;;;24.50;14.48;;;;;;;12.70;100.00;100796.81;20571958;28;20063;-81
2022/10/19 19:58:44;;;;;;;28.63;16.48;;;;;;;12.67;100.00;100770.59;20544939;28;20043;-82
2022/10/19 20:08:46;;;;;;;29.08;16.50;;;;;;;12.66;100.00;100779.38;20531631;28;20039;-84
2022/10/19 20:18:48;;;;;;;25.35;15.30;;;;;;;12.67;100.00;100781.09;20519733;28;20098;-84
2022/10/19 20:28:49;;;;;;;30.75;17.35;;;;;;;12.63;100.00;100779.44;20515240;28;20051;-84
2022/10/19 20:38:51;;;;;;;29.00;17.50;;;;;;;12.52;100.00;100777.00;20513986;28;20043;-85
2022/10/19 20:48:53;;;;;;;32.15;18.58;;;;;;;12.48;100.00;100775.31;20498580;28;20078;-84
2022/10/19 20:58:55;;;;;;;31.25;18.50;;;;;;;12.44;100.00;100760.50;20512299;28;20047;-85
2022/10/19 21:08:56;;;;;;;34.13;18.33;;;;;;;12.43;100.00;100766.66;20514289;28;20615;-85
2022/10/19 21:18:59;;;;;;;31.15;18.52;;;;;;;12.39;100.00;100759.72;20502422;28;20481;-85
2022/10/19 21:29:00;;;;;;;33.97;18.15;;;;;;;12.22;100.00;100746.03;20512558;28;20047;-85
2022/10/19 21:39:02;;;;;;;31.58;18.52;;;;;;;12.25;100.00;100753.84;20526190;28;20755;-85
2022/10/19 21:49:03;;;;;;;31.17;18.65;;;;;;;12.18;100.00;100739.09;20497345;29;20155;-83
2022/10/19 21:59:05;;;;;;;28.83;16.98;;;;;;;12.05;100.00;100736.66;20488777;28;20500;-84
2022/10/19 22:09:06;;;;;;;35.63;18.30;;;;;;;12.15;100.00;100715.50;20507424;28;20046;-84
2022/10/19 22:19:08;;;;;;;30.75;18.25;;;;;;;12.05;100.00;100702.53;20507706;28;20571;-85
2022/10/19 22:29:10;;;;;;;33.72;17.17;;;;;;;12.05;100.00;100701.69;20505750;28;20047;-84
2022/10/19 22:39:11;;;;;;;32.05;18.27;;;;;;;11.99;100.00;100678.16;20503166;29;20046;-85
2022/10/19 22:49:12;;;;;;;30.98;17.38;;;;;;;11.97;100.00;100678.19;20511076;28;20047;-83
2022/10/19 22:59:14;;;;;;;27.05;15.80;;;;;;;11.90;100.00;100645.06;20506458;28;20043;-85
2022/10/19 23:09:15;;;;;;;32.55;17.15;;;;;;;11.76;100.00;100642.66;20533658;28;20062;-83
2022/10/19 23:19:17;;;;;;;30.98;16.90;;;;;;;11.78;100.00;100624.25;20580654;28;20074;-85
2022/10/19 23:29:18;;;;;;;28.85;16.00;;;;;;;11.74;100.00;100606.84;20497044;28;20054;-85
2022/10/19 23:39:19;;;;;;;30.80;16.60;;;;;;;11.66;100.00;100617.47;20507725;29;20035;-85
2022/10/19 23:49:21;;;;;;;27.35;15.45;;;;;;;11.62;100.00;100607.06;20503312;28;20047;-85
2022/10/19 23:59:22;;;;;;;29.35;15.32;;;;;;;11.51;100.00;100622.97;20495128;28;20039;-85
